Time;durP1;ratioP1;P1;durP2;ratioP2;P2;SDS_P1;SDS_P2;PMS_P1;PMS_P2;Temp;Humidity;BMP_temperature;BMP_pressure;BME280_temperature;BME280_humidity;BME280_pressure;Samples;Min_cycle;Max_cycle;Signal;HPM_P1;HPM_P2
2021/12/24 00:02:17;;;;;;;136.70;41.58;;;6.60;99.90;;;;;;4992600;28;20121;-68
2021/12/24 00:04:43;;;;;;;136.15;41.53;;;6.70;99.90;;;;;;4992392;28;20041;-69
2021/12/24 00:07:08;;;;;;;175.20;45.05;;;6.70;99.90;;;;;;4992517;28;20038;-69
2021/12/24 00:09:36;;;;;;;148.88;41.08;;;6.70;99.90;;;;;;4992513;28;20070;-69
2021/12/24 00:12:10;;;;;;;171.18;43.63;;;6.80;99.90;;;;;;5025516;28;20057;-69
2021/12/24 00:14:36;;;;;;;204.35;47.15;;;6.80;99.90;;;;;;5006219;28;20042;-68
2021/12/24 00:17:04;;;;;;;198.40;45.40;;;6.80;99.90;;;;;;5025215;28;20163;-69
2021/12/24 00:35:35;;;;;;;86.22;29.88;;;7.00;99.90;;;;;;4992320;28;20053;-69
2021/12/24 00:38:07;;;;;;;76.05;28.05;;;7.00;99.90;;;;;;4992264;28;20106;-69
2021/12/24 00:40:37;;;;;;;88.03;30.77;;;7.10;99.90;;;;;;4988799;28;20152;-68
2021/12/24 00:43:03;;;;;;;100.93;29.05;;;7.10;99.90;;;;;;5005150;28;20050;-69
2021/12/24 00:45:32;;;;;;;98.10;29.42;;;7.10;99.90;;;;;;5002625;28;20043;-69
2021/12/24 00:47:59;;;;;;;110.65;33.00;;;7.10;99.90;;;;;;5005069;28;20053;-69
2021/12/24 00:50:29;;;;;;;116.35;32.90;;;7.20;99.90;;;;;;5005283;28;20048;-69
2021/12/24 00:53:02;;;;;;;111.60;33.40;;;7.20;99.90;;;;;;4956724;28;20061;-69
2021/12/24 00:55:30;;;;;;;77.97;26.55;;;7.20;99.90;;;;;;5005150;28;20394;-69
2021/12/24 00:57:58;;;;;;;90.60;27.13;;;7.20;99.90;;;;;;4988405;28;20050;-69
2021/12/24 01:00:33;;;;;;;135.73;34.17;;;7.20;99.90;;;;;;5004843;28;20046;-69
2021/12/24 01:03:01;;;;;;;70.00;23.55;;;7.30;99.90;;;;;;5005097;28;20041;-69
2021/12/24 01:05:28;;;;;;;72.18;23.75;;;7.30;99.90;;;;;;5004709;28;20117;-69
2021/12/24 01:07:55;;;;;;;52.28;19.88;;;7.30;99.90;;;;;;5004759;28;20506;-69
2021/12/24 01:10:29;;;;;;;62.42;22.15;;;7.30;99.90;;;;;;5004619;28;20045;-69
2021/12/24 01:12:55;;;;;;;49.88;19.65;;;7.30;99.90;;;;;;5004747;28;20042;-69
2021/12/24 01:15:22;;;;;;;79.72;24.73;;;7.30;99.90;;;;;;4986124;28;20137;-69
2021/12/24 01:20:29;;;;;;;52.05;19.60;;;7.40;99.90;;;;;;5004830;28;20082;-69
2021/12/24 01:28:44;;;;;;;47.38;17.45;;;7.40;99.90;;;;;;5004833;28;20444;-69
2021/12/24 01:39:07;;;;;;;53.92;17.00;;;7.40;99.90;;;;;;5011144;28;20049;-69
2021/12/24 01:44:22;;;;;;;39.72;16.02;;;7.50;99.90;;;;;;4989010;28;20046;-69
2021/12/24 01:46:47;;;;;;;34.92;15.48;;;7.60;99.90;;;;;;4991215;28;20108;-69
2021/12/24 01:49:13;;;;;;;60.60;19.65;;;7.60;99.90;;;;;;5024023;28;20489;-69
2021/12/24 01:51:39;;;;;;;44.90;17.60;;;7.70;99.90;;;;;;5024002;28;20038;-69
2021/12/24 01:54:05;;;;;;;40.45;16.77;;;7.70;99.90;;;;;;4974975;28;20046;-69
2021/12/24 01:56:31;;;;;;;46.13;17.15;;;7.70;99.90;;;;;;5007650;28;20064;-69
2021/12/24 01:58:57;;;;;;;41.65;16.40;;;7.70;99.90;;;;;;5024155;28;20042;-70
2021/12/24 02:01:27;;;;;;;41.42;16.70;;;7.70;99.90;;;;;;4991035;28;20048;-69
2021/12/24 02:03:53;;;;;;;61.13;19.90;;;7.80;99.90;;;;;;4991088;28;20057;-70
2021/12/24 02:06:18;;;;;;;46.00;17.27;;;7.80;99.90;;;;;;5007298;28;20042;-69
2021/12/24 02:08:44;;;;;;;40.65;15.95;;;7.80;99.90;;;;;;4975342;28;20367;-69
2021/12/24 02:11:10;;;;;;;39.47;16.15;;;7.80;99.90;;;;;;4994516;28;20038;-69
2021/12/24 02:13:39;;;;;;;43.00;16.35;;;7.90;99.90;;;;;;5027070;28;20482;-69
2021/12/24 02:16:21;;;;;;;34.22;15.05;;;7.90;99.90;;;;;;5024548;28;20059;-69
2021/12/24 02:29:52;;;;;;;54.38;19.35;;;8.30;99.90;;;;;;4994067;28;20513;-69
2021/12/24 02:32:17;;;;;;;54.80;19.60;;;8.30;99.90;;;;;;5010268;28;20042;-69
2021/12/24 02:34:43;;;;;;;50.20;18.75;;;8.30;99.90;;;;;;5026822;28;20045;-69
2021/12/24 02:37:09;;;;;;;68.82;22.98;;;8.30;99.90;;;;;;4993898;28;20053;-69
2021/12/24 02:39:35;;;;;;;51.08;19.35;;;8.30;99.90;;;;;;4994063;28;20049;-69
2021/12/24 02:42:19;;;;;;;57.55;20.00;;;8.30;99.90;;;;;;4994004;28;20052;-69
2021/12/24 02:44:47;;;;;;;60.13;21.63;;;8.30;99.90;;;;;;4991614;28;20042;-69
2021/12/24 02:55:09;;;;;;;72.28;22.42;;;8.20;99.90;;;;;;4994030;28;20111;-69
2021/12/24 02:57:37;;;;;;;87.00;24.52;;;8.20;99.90;;;;;;4993612;28;20502;-69
2021/12/24 03:00:14;;;;;;;78.95;24.15;;;8.30;99.90;;;;;;4993622;28;20088;-69
2021/12/24 03:02:40;;;;;;;73.15;23.15;;;8.30;99.90;;;;;;4993715;28;20053;-69
2021/12/24 03:05:07;;;;;;;68.93;21.13;;;8.30;99.90;;;;;;4993707;28;20406;-69
2021/12/24 03:07:33;;;;;;;53.17;18.85;;;8.30;99.90;;;;;;4977468;28;20033;-69
2021/12/24 03:10:00;;;;;;;56.67;19.55;;;8.30;99.90;;;;;;4993383;28;20037;-69
2021/12/24 03:12:27;;;;;;;48.05;19.67;;;8.40;99.90;;;;;;4993655;28;20125;-71
2021/12/24 03:14:54;;;;;;;51.97;20.73;;;8.40;99.90;;;;;;4991251;28;20049;-70
2021/12/24 03:17:23;;;;;;;50.35;20.10;;;8.50;99.90;;;;;;4980535;28;20120;-70
2021/12/24 03:19:49;;;;;;;50.72;20.73;;;8.50;99.90;;;;;;4954479;28;20082;-70
2021/12/24 03:24:59;;;;;;;47.20;21.60;;;8.50;99.90;;;;;;4970803;28;20065;-70
2021/12/24 03:27:25;;;;;;;64.80;25.17;;;8.50;99.90;;;;;;4970669;28;20514;-70
2021/12/24 03:29:51;;;;;;;72.57;28.52;;;8.50;99.90;;;;;;4970460;28;20043;-70
2021/12/24 03:32:17;;;;;;;74.20;27.67;;;8.50;99.90;;;;;;4954277;28;20038;-70
2021/12/24 03:34:45;;;;;;;73.68;31.17;;;8.60;99.90;;;;;;4970726;28;20049;-71
2021/12/24 03:37:11;;;;;;;75.95;32.20;;;8.50;99.90;;;;;;4970753;28;20477;-70
2021/12/24 03:39:36;;;;;;;69.93;29.67;;;8.50;99.90;;;;;;4970184;28;20043;-70
2021/12/24 03:42:05;;;;;;;69.43;28.45;;;8.50;99.90;;;;;;4954197;28;20057;-70
2021/12/24 03:44:50;;;;;;;80.05;33.03;;;8.50;99.90;;;;;;4967973;28;20184;-70
2021/12/24 03:47:19;;;;;;;61.15;25.92;;;8.50;99.90;;;;;;4970157;28;20051;-70
2021/12/24 03:54:56;;;;;;;62.20;26.15;;;8.50;99.90;;;;;;5003096;28;20047;-70
2021/12/24 03:57:28;;;;;;;81.60;28.45;;;8.50;99.90;;;;;;4954024;28;20043;-70
2021/12/24 03:59:57;;;;;;;55.70;23.83;;;8.50;99.90;;;;;;4954058;28;20545;-70
2021/12/24 04:02:23;;;;;;;69.18;24.88;;;8.50;99.90;;;;;;4969980;28;20047;-70
2021/12/24 04:04:49;;;;;;;54.53;23.58;;;8.40;99.90;;;;;;4954181;28;20404;-72
2021/12/24 04:07:16;;;;;;;55.35;23.52;;;8.50;99.90;;;;;;4969835;28;20039;-70
2021/12/24 04:09:49;;;;;;;51.90;22.75;;;8.40;99.90;;;;;;4969831;28;20042;-70
2021/12/24 04:12:15;;;;;;;54.63;22.55;;;8.40;99.90;;;;;;4970098;28;20039;-70
2021/12/24 04:14:41;;;;;;;57.47;23.98;;;8.40;99.90;;;;;;4967693;28;20041;-70
2021/12/24 04:17:08;;;;;;;56.65;23.02;;;8.40;99.90;;;;;;4953693;28;20062;-70
2021/12/24 04:25:04;;;;;;;56.35;21.98;;;8.40;99.90;;;;;;5002281;28;20050;-70
2021/12/24 04:27:31;;;;;;;51.03;21.48;;;8.40;99.90;;;;;;4953523;28;20078;-71
2021/12/24 04:30:23;;;;;;;47.97;19.90;;;8.40;99.90;;;;;;5002067;28;20045;-70
2021/12/24 05:03:12;;;;;;;46.20;19.00;;;8.60;99.90;;;;;;4950095;28;20117;-70
2021/12/24 05:05:46;;;;;;;48.17;19.87;;;8.60;99.90;;;;;;4949947;28;20050;-70
2021/12/24 05:10:39;;;;;;;46.30;16.67;;;8.60;99.90;;;;;;4949904;28;20050;-70
2021/12/24 05:13:10;;;;;;;38.85;16.90;;;8.60;99.90;;;;;;4933775;29;20047;-70
2021/12/24 05:15:37;;;;;;;;;;;8.60;99.90;;;;;;4931979;29;20047;-70
2021/12/24 05:18:29;;;;;;;33.85;15.30;;;8.60;99.90;;;;;;4964748;28;19977;-70
2021/12/24 05:23:39;;;;;;;31.45;13.90;;;8.60;99.90;;;;;;5001353;28;20053;-70
2021/12/24 05:26:05;;;;;;;31.33;12.13;;;8.60;99.90;;;;;;4985048;28;20040;-71
2021/12/24 05:28:31;;;;;;;35.45;13.07;;;8.60;99.90;;;;;;5001458;28;20039;-71
2021/12/24 05:30:58;;;;;;;29.38;12.80;;;8.60;99.90;;;;;;5001254;28;20557;-70
2021/12/24 05:33:24;;;;;;;26.00;11.05;;;8.60;99.90;;;;;;4968746;28;20096;-70
2021/12/24 05:35:50;;;;;;;25.58;11.43;;;8.60;99.90;;;;;;4985316;28;20042;-70
2021/12/24 05:38:16;;;;;;;32.05;11.55;;;8.60;99.90;;;;;;5003088;28;20058;-70
2021/12/24 05:40:43;;;;;;;32.40;12.27;;;8.60;99.90;;;;;;5004317;28;20043;-70
2021/12/24 05:43:09;;;;;;;32.80;11.55;;;8.60;99.90;;;;;;4972197;28;20139;-70
2021/12/24 05:45:36;;;;;;;29.23;10.75;;;8.50;99.90;;;;;;5004640;28;20050;-70
2021/12/24 05:48:02;;;;;;;32.50;11.18;;;8.60;99.90;;;;;;4991550;28;20046;-71
2021/12/24 05:50:30;;;;;;;24.75;10.18;;;8.50;99.90;;;;;;4991607;28;20125;-70
2021/12/24 05:52:55;;;;;;;27.67;10.43;;;8.50;99.90;;;;;;5024212;28;20125;-70
2021/12/24 05:55:21;;;;;;;28.10;10.75;;;8.50;99.90;;;;;;5007964;28;20183;-70
2021/12/24 05:57:48;;;;;;;36.05;10.90;;;8.50;99.90;;;;;;4991317;28;20125;-70
2021/12/24 06:00:15;;;;;;;24.73;11.25;;;8.50;99.90;;;;;;5024291;28;20042;-70
2021/12/24 06:02:41;;;;;;;33.17;12.20;;;8.50;99.90;;;;;;4991575;28;20133;-70
2021/12/24 06:05:07;;;;;;;35.33;12.20;;;8.50;99.90;;;;;;4991056;28;20125;-70
2021/12/24 06:07:33;;;;;;;31.17;11.40;;;8.50;99.90;;;;;;4975347;28;20449;-70
2021/12/24 06:09:59;;;;;;;30.13;10.68;;;8.50;99.90;;;;;;4991252;28;20050;-70
2021/12/24 06:12:24;;;;;;;25.48;9.75;;;8.50;99.90;;;;;;4991157;28;20038;-70
2021/12/24 06:15:00;;;;;;;23.73;10.88;;;8.50;99.90;;;;;;4988501;28;20158;-70
2021/12/24 06:17:26;;;;;;;36.13;9.57;;;8.50;99.90;;;;;;4980684;28;20167;-70
2021/12/24 06:19:52;;;;;;;29.77;10.18;;;8.50;99.90;;;;;;4971817;28;20083;-70
2021/12/24 06:22:18;;;;;;;27.75;9.30;;;8.50;99.90;;;;;;4971533;28;20043;-70
2021/12/24 06:24:44;;;;;;;33.78;10.65;;;8.50;99.90;;;;;;4971915;28;20035;-70
2021/12/24 06:27:10;;;;;;;23.35;7.90;;;8.50;99.90;;;;;;4971445;28;20572;-70
2021/12/24 06:29:36;;;;;;;31.33;9.85;;;8.50;99.90;;;;;;4971304;28;20075;-70
2021/12/24 06:32:02;;;;;;;29.95;9.68;;;8.50;99.90;;;;;;4971422;28;20043;-70
2021/12/24 06:34:30;;;;;;;31.02;9.20;;;8.40;99.90;;;;;;4971571;28;20039;-70
2021/12/24 06:36:57;;;;;;;29.42;9.43;;;8.40;99.90;;;;;;4971362;28;20050;-70
2021/12/24 06:39:23;;;;;;;33.08;9.95;;;8.40;99.90;;;;;;4960588;28;20048;-70
2021/12/24 06:41:49;;;;;;;26.58;8.82;;;8.40;99.90;;;;;;4952216;28;20043;-70
2021/12/24 06:44:15;;;;;;;26.40;8.70;;;8.40;99.90;;;;;;4949760;29;20400;-70
2021/12/24 06:46:42;;;;;;;26.35;9.55;;;8.40;99.90;;;;;;4951976;29;20105;-70
2021/12/24 06:49:10;;;;;;;25.25;9.30;;;8.40;99.90;;;;;;4951833;28;20039;-70
2021/12/24 06:51:36;;;;;;;20.38;7.28;;;8.40;99.90;;;;;;4951914;28;20054;-70
2021/12/24 06:54:03;;;;;;;23.60;8.15;;;8.30;99.90;;;;;;4936051;29;20128;-70
2021/12/24 06:56:29;;;;;;;21.35;7.55;;;8.30;99.90;;;;;;4951791;28;20039;-70
2021/12/24 06:58:55;;;;;;;22.83;7.05;;;8.40;99.90;;;;;;4951801;28;20525;-71
2021/12/24 07:01:21;;;;;;;22.50;8.43;;;8.40;99.90;;;;;;4935973;29;20045;-70
2021/12/24 07:03:47;;;;;;;20.35;7.38;;;8.40;99.90;;;;;;4984134;28;20415;-70
2021/12/24 07:06:13;;;;;;;21.50;7.03;;;8.40;99.90;;;;;;4951661;29;20059;-70
2021/12/24 07:08:39;;;;;;;24.15;7.93;;;8.40;99.90;;;;;;4951639;29;20039;-70
2021/12/24 07:11:04;;;;;;;21.35;7.45;;;8.40;99.90;;;;;;4951471;29;20125;-69
2021/12/24 07:13:30;;;;;;;15.40;6.53;;;8.40;99.90;;;;;;4951758;29;20043;-70
2021/12/24 07:15:56;;;;;;;20.67;6.45;;;8.40;99.90;;;;;;4949063;29;20441;-70
2021/12/24 07:18:22;;;;;;;16.33;5.78;;;8.40;99.90;;;;;;4968897;28;20384;-70
2021/12/24 07:20:49;;;;;;;18.65;7.43;;;8.40;99.90;;;;;;5003019;28;20134;-70
2021/12/24 07:23:15;;;;;;;24.52;7.57;;;8.40;99.90;;;;;;5003418;28;20372;-70
2021/12/24 07:25:41;;;;;;;19.55;5.88;;;8.40;99.90;;;;;;4970472;28;20057;-70
2021/12/24 07:28:07;;;;;;;26.65;6.25;;;8.40;99.90;;;;;;4986708;28;20045;-70
2021/12/24 07:30:33;;;;;;;27.83;6.70;;;8.40;99.90;;;;;;5002967;28;20054;-70
2021/12/24 07:32:59;;;;;;;24.60;6.93;;;8.40;99.90;;;;;;5003016;28;20042;-70
2021/12/24 07:35:25;;;;;;;30.20;6.60;;;8.40;99.90;;;;;;4986619;28;20141;-70
2021/12/24 07:37:51;;;;;;;30.05;6.43;;;8.40;99.90;;;;;;5003212;28;20133;-70
2021/12/24 07:40:18;;;;;;;25.70;6.82;;;8.30;99.90;;;;;;5004719;28;20480;-70
2021/12/24 07:42:45;;;;;;;21.10;6.63;;;8.40;99.90;;;;;;4989405;28;20042;-70
2021/12/24 07:45:12;;;;;;;28.55;6.53;;;8.40;99.90;;;;;;4986869;28;20046;-70
2021/12/24 07:47:41;;;;;;;27.40;6.88;;;8.40;99.90;;;;;;4989715;28;20039;-69
2021/12/24 07:52:43;;;;;;;20.45;5.75;;;8.40;99.90;;;;;;4989668;28;20289;-70
2021/12/24 07:55:10;;;;;;;21.90;6.63;;;8.40;99.90;;;;;;4989527;28;20046;-70
2021/12/24 07:57:40;;;;;;;20.48;7.00;;;8.40;99.90;;;;;;4989728;28;20046;-70
2021/12/24 08:00:08;;;;;;;21.02;6.95;;;8.40;99.90;;;;;;4990305;28;20057;-69
2021/12/24 08:02:34;;;;;;;29.35;7.13;;;8.40;99.90;;;;;;4973600;28;20046;-70
2021/12/24 08:05:00;;;;;;;23.90;6.85;;;8.40;99.90;;;;;;4989162;28;20046;-70
2021/12/24 08:07:27;;;;;;;24.83;7.40;;;8.40;99.90;;;;;;4988656;28;20056;-70
2021/12/24 08:09:53;;;;;;;30.25;9.05;;;8.40;99.90;;;;;;4989381;28;20042;-70
2021/12/24 08:12:20;;;;;;;18.25;5.63;;;8.30;99.90;;;;;;4989292;28;20042;-70
2021/12/24 08:14:46;;;;;;;25.17;7.22;;;8.30;99.90;;;;;;4970690;28;20080;-69
2021/12/24 08:17:13;;;;;;;26.42;8.40;;;8.40;99.90;;;;;;4964671;28;20507;-69
2021/12/24 08:19:39;;;;;;;17.80;7.05;;;8.30;99.90;;;;;;4985955;28;20134;-69
2021/12/24 08:22:05;;;;;;;26.30;5.97;;;8.30;99.90;;;;;;4953964;28;20164;-70
2021/12/24 08:24:32;;;;;;;20.77;6.03;;;8.30;99.90;;;;;;4969757;28;20049;-70
2021/12/24 08:26:58;;;;;;;20.63;6.90;;;8.30;99.90;;;;;;4969545;28;20050;-70
2021/12/24 08:29:24;;;;;;;26.60;7.00;;;8.40;99.90;;;;;;4969687;28;20042;-70
2021/12/24 08:31:51;;;;;;;20.50;5.85;;;8.30;99.90;;;;;;4969538;28;20575;-70
2021/12/24 08:34:18;;;;;;;23.73;5.78;;;8.30;99.90;;;;;;5002141;28;20035;-70
2021/12/24 08:36:45;;;;;;;28.48;7.85;;;8.30;99.90;;;;;;4969659;28;20046;-70
2021/12/24 08:39:11;;;;;;;21.67;8.23;;;8.30;99.90;;;;;;4979604;28;20078;-70
2021/12/24 08:41:37;;;;;;;23.92;8.77;;;8.30;99.90;;;;;;4969336;28;20097;-70
2021/12/24 08:44:03;;;;;;;23.67;7.60;;;8.30;99.90;;;;;;4953766;28;20039;-70
2021/12/24 08:46:29;;;;;;;23.75;6.35;;;8.30;99.90;;;;;;4950828;28;20121;-70
2021/12/24 08:48:56;;;;;;;28.38;5.88;;;8.30;99.90;;;;;;4953495;28;20494;-70
2021/12/24 08:51:22;;;;;;;18.90;5.40;;;8.30;99.90;;;;;;4969199;28;20039;-70
2021/12/24 08:53:48;;;;;;;21.88;10.10;;;8.30;99.90;;;;;;4969569;28;20039;-70
2021/12/24 08:56:13;;;;;;;17.30;6.30;;;8.30;99.90;;;;;;4969669;28;20126;-70
2021/12/24 08:58:40;;;;;;;27.73;6.45;;;8.30;99.90;;;;;;4970220;28;20138;-70
2021/12/24 09:01:06;;;;;;;20.92;5.93;;;8.30;99.90;;;;;;4970173;28;20187;-70
2021/12/24 09:03:32;;;;;;;18.98;5.18;;;8.30;99.90;;;;;;4970266;28;20046;-70
2021/12/24 09:05:58;;;;;;;25.70;5.97;;;8.30;99.90;;;;;;4953753;28;20047;-70
2021/12/24 09:08:24;;;;;;;18.55;5.25;;;8.30;99.90;;;;;;4970093;28;20046;-70
2021/12/24 09:10:50;;;;;;;22.13;5.30;;;8.30;99.90;;;;;;4969959;28;20035;-71
2021/12/24 09:13:16;;;;;;;33.85;8.48;;;8.30;99.90;;;;;;4969960;28;20043;-71
2021/12/24 09:15:43;;;;;;;26.83;8.23;;;8.30;99.90;;;;;;4967613;28;20047;-71
2021/12/24 09:18:08;;;;;;;26.48;7.38;;;8.20;99.90;;;;;;4970466;28;20061;-71
2021/12/24 09:20:39;;;;;;;25.92;5.93;;;8.20;99.90;;;;;;4973209;28;20129;-71
2021/12/24 09:23:07;;;;;;;23.38;5.93;;;8.20;99.90;;;;;;4973283;28;20655;-71
2021/12/24 09:25:33;;;;;;;27.30;6.18;;;8.20;99.90;;;;;;4973159;28;20130;-71
2021/12/24 09:28:00;;;;;;;33.55;6.40;;;8.20;99.90;;;;;;4957177;28;20064;-71
2021/12/24 09:30:27;;;;;;;25.55;6.30;;;8.20;99.90;;;;;;4973254;28;20046;-71
2021/12/24 09:32:54;;;;;;;20.35;6.00;;;8.30;99.90;;;;;;4973216;28;20049;-71
2021/12/24 09:35:21;;;;;;;22.98;5.68;;;8.40;99.90;;;;;;4973459;28;20112;-71
2021/12/24 09:37:47;;;;;;;25.83;6.22;;;8.40;99.90;;;;;;4957267;28;20035;-71
2021/12/24 09:40:15;;;;;;;28.50;6.10;;;8.40;99.90;;;;;;4973384;28;20076;-71
2021/12/24 09:42:41;;;;;;;22.25;5.50;;;8.40;99.90;;;;;;4972977;28;20108;-71
2021/12/24 09:45:09;;;;;;;24.55;6.80;;;8.40;99.90;;;;;;4970925;28;20088;-71
2021/12/24 09:47:35;;;;;;;24.92;5.35;;;8.40;99.90;;;;;;4972934;28;20127;-71
2021/12/24 09:50:01;;;;;;;26.42;5.47;;;8.40;99.90;;;;;;4973210;28;20129;-69
2021/12/24 09:52:29;;;;;;;24.50;6.25;;;8.40;99.90;;;;;;4972903;28;20590;-71
2021/12/24 09:54:54;;;;;;;19.58;5.57;;;8.50;99.90;;;;;;5005432;28;20043;-71
2021/12/24 09:57:20;;;;;;;27.85;12.05;;;8.50;99.90;;;;;;4972778;28;20100;-71
2021/12/24 09:59:46;;;;;;;29.85;8.32;;;8.50;99.90;;;;;;4973049;28;20120;-71
2021/12/24 10:02:16;;;;;;;22.95;8.15;;;8.50;99.90;;;;;;4972724;28;20051;-69
2021/12/24 10:04:43;;;;;;;25.55;7.43;;;8.50;99.90;;;;;;4972835;28;20053;-70
2021/12/24 10:07:12;;;;;;;24.92;6.47;;;8.60;99.90;;;;;;4972587;28;20088;-70
2021/12/24 10:09:40;;;;;;;24.10;6.65;;;8.60;99.90;;;;;;4956959;28;20031;-70
2021/12/24 10:12:10;;;;;;;26.88;6.43;;;8.60;99.90;;;;;;5005136;28;20050;-70
2021/12/24 10:14:57;;;;;;;25.70;7.03;;;8.70;99.90;;;;;;5003182;28;20046;-70
2021/12/24 10:17:30;;;;;;;28.67;7.70;;;8.70;99.90;;;;;;4972521;28;20383;-71
2021/12/24 10:20:10;;;;;;;25.27;6.65;;;8.70;99.90;;;;;;4988739;28;20096;-71
2021/12/24 10:22:45;;;;;;;26.33;6.90;;;8.80;99.90;;;;;;4956377;28;20047;-71
2021/12/24 10:25:13;;;;;;;22.00;6.20;;;8.80;99.90;;;;;;4972699;28;20034;-71
2021/12/24 10:27:40;;;;;;;24.92;7.40;;;8.80;99.90;;;;;;4956221;28;20047;-71
2021/12/24 10:30:22;;;;;;;27.92;7.40;;;8.80;99.90;;;;;;4988331;28;20406;-71
2021/12/24 10:32:51;;;;;;;29.30;7.65;;;8.70;99.90;;;;;;4972491;28;20046;-71
2021/12/24 10:35:22;;;;;;;18.90;5.88;;;8.70;99.90;;;;;;4956204;28;20148;-70
2021/12/24 10:38:08;;;;;;;18.63;5.90;;;8.70;99.90;;;;;;4972499;28;20406;-70
2021/12/24 10:40:34;;;;;;;16.85;5.68;;;8.70;99.90;;;;;;4953243;28;20047;-70
2021/12/24 10:43:00;;;;;;;20.58;5.90;;;8.70;99.90;;;;;;4937230;28;20426;-69
2021/12/24 10:45:26;;;;;;;22.92;5.95;;;8.70;99.90;;;;;;4950868;29;20491;-70
2021/12/24 10:47:52;;;;;;;13.63;4.20;;;8.70;99.90;;;;;;4952789;29;20096;-70
2021/12/24 10:55:22;;;;;;;10.93;2.85;;;8.50;99.90;;;;;;4952703;29;20047;-69
2021/12/24 10:57:53;;;;;;;10.60;3.30;;;8.50;99.90;;;;;;4952912;29;20035;-70
2021/12/24 11:00:30;;;;;;;7.43;2.75;;;8.40;99.90;;;;;;4936749;29;20046;-69
2021/12/24 11:03:13;;;;;;;1.23;0.60;;;8.30;99.90;;;;;;4952513;29;20062;-70
2021/12/24 11:05:45;;;;;;;1.67;0.80;;;8.20;99.90;;;;;;4952657;28;20040;-70
2021/12/24 11:08:16;;;;;;;2.15;0.90;;;8.00;99.90;;;;;;4952539;29;20040;-70
2021/12/24 11:10:46;;;;;;;1.60;0.98;;;7.80;99.90;;;;;;4936608;29;20043;-70
2021/12/24 11:13:16;;;;;;;2.13;1.02;;;7.60;99.90;;;;;;4936346;29;20050;-70
2021/12/24 11:15:46;;;;;;;;;;;7.50;99.90;;;;;;4950859;28;20039;-70
2021/12/24 11:18:15;;;;;;;2.03;1.13;;;7.40;99.90;;;;;;4936305;28;19922;-70
2021/12/24 11:20:42;;;;;;;2.30;0.90;;;7.40;99.90;;;;;;4956182;28;20124;-69
2021/12/24 11:23:13;;;;;;;2.00;1.10;;;7.30;99.90;;;;;;4971735;28;20108;-70
2021/12/24 11:25:45;;;;;;;3.38;1.40;;;7.20;99.90;;;;;;4971402;28;20047;-69
2021/12/24 11:28:29;;;;;;;1.80;1.30;;;7.10;99.90;;;;;;4971394;28;20047;-69
2021/12/24 11:38:18;;;;;;;2.95;1.80;;;7.10;99.90;;;;;;4967068;28;19928;-69
2021/12/24 11:40:48;;;;;;;3.40;1.83;;;7.10;99.90;;;;;;4971126;28;20078;-70
2021/12/24 11:43:16;;;;;;;3.22;2.00;;;7.10;99.90;;;;;;4970489;28;20395;-70
2021/12/24 11:45:42;;;;;;;2.55;1.70;;;7.10;99.90;;;;;;4970915;28;20105;-70
2021/12/24 11:48:08;;;;;;;3.15;1.70;;;7.10;99.90;;;;;;4969080;28;20031;-69
2021/12/24 11:50:35;;;;;;;2.63;2.03;;;7.20;99.90;;;;;;4971164;28;20081;-69
2021/12/24 11:53:06;;;;;;;3.13;2.00;;;7.20;99.90;;;;;;4970922;28;20100;-70
2021/12/24 11:55:38;;;;;;;3.58;1.95;;;7.20;99.90;;;;;;4970831;28;20050;-69
2021/12/24 11:58:08;;;;;;;2.58;2.10;;;7.20;99.90;;;;;;4970958;28;20100;-69
2021/12/24 12:00:40;;;;;;;2.92;1.60;;;7.20;99.90;;;;;;4971119;28;20114;-69
2021/12/24 12:03:08;;;;;;;3.13;1.52;;;7.20;99.90;;;;;;4970794;28;20054;-70
2021/12/24 12:05:41;;;;;;;1.75;1.30;;;7.20;99.90;;;;;;4954563;28;20050;-70
2021/12/24 12:08:25;;;;;;;2.40;1.13;;;7.20;99.90;;;;;;4970959;28;20092;-70
2021/12/24 12:10:55;;;;;;;2.58;0.93;;;7.20;99.90;;;;;;4954689;28;20505;-70
2021/12/24 12:13:52;;;;;;;1.40;0.80;;;7.30;99.90;;;;;;4970534;28;20125;-70
2021/12/24 12:16:47;;;;;;;1.10;0.70;;;7.30;99.90;;;;;;4972539;28;20045;-69
2021/12/24 12:19:29;;;;;;;1.52;1.08;;;7.40;99.90;;;;;;4991312;28;20045;-69
2021/12/24 12:22:12;;;;;;;2.05;1.10;;;7.40;99.90;;;;;;4993236;28;20125;-70
2021/12/24 12:27:39;;;;;;;2.17;1.45;;;7.60;99.90;;;;;;4992403;28;20488;-71
2021/12/24 12:30:17;;;;;;;3.08;1.38;;;7.60;99.90;;;;;;4993422;28;20091;-71
2021/12/24 12:32:43;;;;;;;1.85;1.00;;;7.70;99.90;;;;;;5035538;28;20039;-70
2021/12/24 12:35:10;;;;;;;1.90;1.27;;;7.70;99.90;;;;;;5089997;28;20043;-70
2021/12/24 12:38:02;;;;;;;2.45;1.65;;;7.80;99.90;;;;;;5023099;28;20039;-70
2021/12/24 12:40:32;;;;;;;2.50;1.35;;;7.90;99.90;;;;;;5074683;28;20542;-70
2021/12/24 12:43:10;;;;;;;2.35;1.58;;;7.90;99.90;;;;;;5013005;28;20042;-70
2021/12/24 12:45:36;;;;;;;2.33;1.60;;;7.90;99.90;;;;;;4992943;28;20624;-70
2021/12/24 12:48:05;;;;;;;2.83;1.90;;;7.80;99.90;;;;;;4990669;28;20489;-69
2021/12/24 12:50:33;;;;;;;3.38;1.52;;;7.80;99.90;;;;;;4992898;28;20038;-70
2021/12/24 12:53:21;;;;;;;2.40;1.60;;;7.70;99.90;;;;;;5008605;28;20044;-70
2021/12/24 12:55:47;;;;;;;3.33;1.90;;;7.60;99.90;;;;;;5025433;28;20088;-69
2021/12/24 12:58:21;;;;;;;2.70;2.05;;;7.50;99.90;;;;;;4992845;28;20080;-69
2021/12/24 13:01:11;;;;;;;2.67;1.55;;;7.50;99.90;;;;;;5009144;28;20034;-70
2021/12/24 13:03:56;;;;;;;3.38;1.85;;;7.40;99.90;;;;;;4992743;28;20046;-70
2021/12/24 13:06:41;;;;;;;3.33;2.00;;;7.30;99.90;;;;;;4992662;28;20053;-69
2021/12/24 13:09:12;;;;;;;3.58;2.22;;;7.20;99.90;;;;;;5025111;28;20120;-69
2021/12/24 13:11:44;;;;;;;3.65;2.70;;;7.20;99.90;;;;;;4992720;28;20037;-69
2021/12/24 13:14:12;;;;;;;3.10;2.25;;;7.10;99.90;;;;;;5008707;28;20041;-69
2021/12/24 13:16:49;;;;;;;4.45;2.85;;;7.10;99.90;;;;;;5025337;28;20102;-70
2021/12/24 13:25:09;;;;;;;3.65;2.47;;;6.90;99.90;;;;;;4992434;28;20070;-71
2021/12/24 13:27:40;;;;;;;4.03;2.60;;;6.90;99.90;;;;;;5008672;28;20037;-71
2021/12/24 13:30:17;;;;;;;3.85;2.83;;;6.90;99.90;;;;;;4992779;28;20038;-71
2021/12/24 13:32:52;;;;;;;3.90;2.90;;;6.90;99.90;;;;;;4976270;28;20095;-71
2021/12/24 13:35:25;;;;;;;4.10;2.78;;;6.90;99.90;;;;;;4992398;28;20125;-71
2021/12/24 13:37:53;;;;;;;4.75;2.85;;;6.90;99.90;;;;;;5008862;28;20054;-71
2021/12/24 13:40:26;;;;;;;5.28;3.10;;;6.90;99.90;;;;;;4995369;28;20474;-70
2021/12/24 13:43:02;;;;;;;3.95;2.83;;;6.90;99.90;;;;;;5009888;28;20046;-71
2021/12/24 13:45:32;;;;;;;5.18;3.42;;;6.90;99.90;;;;;;4984972;28;20038;-71
2021/12/24 13:48:04;;;;;;;;;;;6.90;99.90;;;;;;5005529;28;20049;-71
2021/12/24 13:56:23;;;;;;;3.40;2.65;;;6.90;99.90;;;;;;5005535;28;20150;-71
2021/12/24 13:58:53;;;;;;;3.65;2.55;;;6.90;99.90;;;;;;4988821;28;20050;-71
2021/12/24 14:01:24;;;;;;;5.07;3.13;;;6.90;99.90;;;;;;5005208;28;20046;-71
2021/12/24 14:03:50;;;;;;;4.68;3.20;;;6.90;99.90;;;;;;4972459;28;20046;-71
2021/12/24 14:06:16;;;;;;;4.53;2.95;;;6.90;99.90;;;;;;5007567;28;20115;-71
2021/12/24 14:08:41;;;;;;;4.13;2.38;;;6.90;99.90;;;;;;4976090;28;20038;-71
2021/12/24 14:11:07;;;;;;;3.70;2.78;;;6.90;99.90;;;;;;4975966;28;20616;-71
2021/12/24 14:13:38;;;;;;;5.25;2.78;;;6.90;99.90;;;;;;5008581;28;20038;-71
2021/12/24 14:16:12;;;;;;;3.65;2.70;;;6.90;99.90;;;;;;5008386;28;20103;-71
2021/12/24 14:18:47;;;;;;;3.72;2.70;;;6.90;99.90;;;;;;4989945;28;20058;-71
2021/12/24 14:24:23;;;;;;;5.15;3.15;;;6.90;99.90;;;;;;5008212;28;20082;-71
2021/12/24 14:27:01;;;;;;;3.97;2.67;;;6.80;99.90;;;;;;4959542;28;20050;-71
2021/12/24 14:29:36;;;;;;;3.88;2.88;;;6.80;99.90;;;;;;5008052;28;20050;-71
2021/12/24 14:32:05;;;;;;;5.60;2.50;;;6.80;99.90;;;;;;5008131;28;20046;-71
2021/12/24 14:34:45;;;;;;;5.82;3.25;;;6.80;99.90;;;;;;5008269;28;20116;-71
2021/12/24 14:37:34;;;;;;;5.43;2.50;;;6.80;99.90;;;;;;4959636;28;20498;-71
2021/12/24 14:40:06;;;;;;;4.53;2.90;;;6.90;99.90;;;;;;4991804;28;20609;-71
2021/12/24 14:42:47;;;;;;;4.03;2.92;;;6.80;99.90;;;;;;4975475;28;20092;-71
2021/12/24 14:45:21;;;;;;;6.25;3.30;;;6.80;99.90;;;;;;5013118;28;20045;-71
2021/12/24 14:48:07;;;;;;;5.65;3.35;;;6.80;99.90;;;;;;4993080;28;20038;-70
2021/12/24 14:50:58;;;;;;;6.13;5.22;;;6.70;99.90;;;;;;4994835;28;20508;-70
2021/12/24 14:53:39;;;;;;;8.82;7.40;;;6.70;99.90;;;;;;5032933;28;20173;-70
2021/12/24 14:56:09;;;;;;;7.05;6.35;;;6.70;99.90;;;;;;5027512;28;20489;-71
2021/12/24 14:58:36;;;;;;;6.97;6.28;;;6.70;99.90;;;;;;4994877;28;20068;-71
2021/12/24 15:01:11;;;;;;;5.43;3.58;;;6.60;99.90;;;;;;4978436;28;20038;-71
2021/12/24 15:03:41;;;;;;;4.95;3.47;;;6.60;99.90;;;;;;4978609;28;20046;-70
2021/12/24 15:06:29;;;;;;;4.75;3.50;;;6.60;99.90;;;;;;4994586;28;20042;-71
2021/12/24 15:08:58;;;;;;;4.85;3.33;;;6.60;99.90;;;;;;5010856;28;20038;-70
2021/12/24 15:11:34;;;;;;;5.60;3.30;;;6.50;99.90;;;;;;5027124;28;20559;-71
2021/12/24 15:14:05;;;;;;;4.88;3.55;;;6.50;99.90;;;;;;5011024;28;20033;-71